sensor_id;sensor_type;location;lat;lon;timestamp;P1;durP1;ratioP1;P2;durP2;ratioP2
28009;SDS011;15334;49.494;8.410;2022-12-08T00:01:56;17.80;;;7.75;;
28009;SDS011;15334;49.494;8.410;2022-12-08T00:04:26;17.40;;;7.82;;
28009;SDS011;15334;49.494;8.410;2022-12-08T00:06:54;19.23;;;8.70;;
28009;SDS011;15334;49.494;8.410;2022-12-08T00:09:40;17.23;;;7.38;;
28009;SDS011;15334;49.494;8.410;2022-12-08T00:12:12;15.63;;;7.90;;
28009;SDS011;15334;49.494;8.410;2022-12-08T00:14:42;15.93;;;8.05;;
28009;SDS011;15334;49.494;8.410;2022-12-08T00:17:12;14.68;;;7.28;;
28009;SDS011;15334;49.494;8.410;2022-12-08T00:19:43;14.00;;;7.03;;
28009;SDS011;15334;49.494;8.410;2022-12-08T00:22:13;17.75;;;8.15;;
28009;SDS011;15334;49.494;8.410;2022-12-08T00:24:44;17.65;;;7.50;;
28009;SDS011;15334;49.494;8.410;2022-12-08T00:27:13;18.42;;;7.82;;
28009;SDS011;15334;49.494;8.410;2022-12-08T00:29:43;15.25;;;7.22;;
28009;SDS011;15334;49.494;8.410;2022-12-08T00:32:11;18.67;;;7.82;;
28009;SDS011;15334;49.494;8.410;2022-12-08T00:34:40;18.98;;;8.05;;
28009;SDS011;15334;49.494;8.410;2022-12-08T00:37:09;17.55;;;8.15;;
28009;SDS011;15334;49.494;8.410;2022-12-08T00:39:37;15.80;;;7.50;;
28009;SDS011;15334;49.494;8.410;2022-12-08T00:42:05;18.55;;;7.38;;
28009;SDS011;15334;49.494;8.410;2022-12-08T00:44:39;15.68;;;7.25;;
28009;SDS011;15334;49.494;8.410;2022-12-08T00:47:08;17.38;;;6.63;;
28009;SDS011;15334;49.494;8.410;2022-12-08T00:49:36;14.60;;;6.47;;
28009;SDS011;15334;49.494;8.410;2022-12-08T00:52:06;14.63;;;7.55;;
28009;SDS011;15334;49.494;8.410;2022-12-08T00:54:35;15.00;;;7.30;;
28009;SDS011;15334;49.494;8.410;2022-12-08T00:57:03;13.20;;;6.65;;
28009;SDS011;15334;49.494;8.410;2022-12-08T00:59:31;13.80;;;6.00;;
28009;SDS011;15334;49.494;8.410;2022-12-08T01:01:59;18.98;;;7.15;;
28009;SDS011;15334;49.494;8.410;2022-12-08T01:04:30;12.55;;;6.20;;
28009;SDS011;15334;49.494;8.410;2022-12-08T01:06:57;14.90;;;6.82;;
28009;SDS011;15334;49.494;8.410;2022-12-08T01:09:25;15.18;;;7.50;;
28009;SDS011;15334;49.494;8.410;2022-12-08T01:11:55;12.82;;;6.32;;
28009;SDS011;15334;49.494;8.410;2022-12-08T01:14:23;17.70;;;6.95;;
28009;SDS011;15334;49.494;8.410;2022-12-08T01:16:53;14.50;;;6.82;;
28009;SDS011;15334;49.494;8.410;2022-12-08T01:19:21;12.93;;;6.88;;
28009;SDS011;15334;49.494;8.410;2022-12-08T01:21:49;17.42;;;6.63;;
28009;SDS011;15334;49.494;8.410;2022-12-08T01:24:18;16.38;;;6.80;;
28009;SDS011;15334;49.494;8.410;2022-12-08T01:26:47;14.43;;;7.25;;
28009;SDS011;15334;49.494;8.410;2022-12-08T01:29:17;12.85;;;6.45;;
28009;SDS011;15334;49.494;8.410;2022-12-08T01:31:45;18.52;;;7.05;;
28009;SDS011;15334;49.494;8.410;2022-12-08T01:34:13;15.85;;;6.38;;
28009;SDS011;15334;49.494;8.410;2022-12-08T01:36:44;16.02;;;6.25;;
28009;SDS011;15334;49.494;8.410;2022-12-08T01:39:14;12.02;;;6.03;;
28009;SDS011;15334;49.494;8.410;2022-12-08T01:41:44;13.75;;;6.40;;
28009;SDS011;15334;49.494;8.410;2022-12-08T01:47:20;12.85;;;5.95;;
28009;SDS011;15334;49.494;8.410;2022-12-08T01:49:51;11.98;;;6.00;;
28009;SDS011;15334;49.494;8.410;2022-12-08T01:52:20;14.70;;;7.05;;
28009;SDS011;15334;49.494;8.410;2022-12-08T01:54:53;10.35;;;5.78;;
28009;SDS011;15334;49.494;8.410;2022-12-08T01:57:24;14.98;;;6.40;;
28009;SDS011;15334;49.494;8.410;2022-12-08T01:59:58;13.60;;;6.00;;
28009;SDS011;15334;49.494;8.410;2022-12-08T02:02:32;18.20;;;6.85;;
28009;SDS011;15334;49.494;8.410;2022-12-08T02:05:06;14.68;;;5.68;;
28009;SDS011;15334;49.494;8.410;2022-12-08T02:07:35;15.80;;;6.20;;
28009;SDS011;15334;49.494;8.410;2022-12-08T02:10:04;11.82;;;5.63;;
28009;SDS011;15334;49.494;8.410;2022-12-08T02:12:37;14.95;;;5.53;;
28009;SDS011;15334;49.494;8.410;2022-12-08T02:15:06;12.65;;;6.57;;
28009;SDS011;15334;49.494;8.410;2022-12-08T02:17:39;12.30;;;5.70;;
28009;SDS011;15334;49.494;8.410;2022-12-08T02:23:11;13.88;;;5.75;;
28009;SDS011;15334;49.494;8.410;2022-12-08T02:25:56;6.95;;;3.90;;
28009;SDS011;15334;49.494;8.410;2022-12-08T02:28:51;14.60;;;5.93;;
28009;SDS011;15334;49.494;8.410;2022-12-08T02:31:39;19.88;;;6.03;;
28009;SDS011;15334;49.494;8.410;2022-12-08T02:34:21;12.32;;;5.80;;
28009;SDS011;15334;49.494;8.410;2022-12-08T02:36:56;14.30;;;5.22;;
28009;SDS011;15334;49.494;8.410;2022-12-08T02:39:33;12.80;;;5.23;;
28009;SDS011;15334;49.494;8.410;2022-12-08T02:42:09;12.18;;;5.68;;
28009;SDS011;15334;49.494;8.410;2022-12-08T02:44:44;13.10;;;5.90;;
28009;SDS011;15334;49.494;8.410;2022-12-08T02:47:19;11.57;;;5.10;;
28009;SDS011;15334;49.494;8.410;2022-12-08T02:49:51;14.32;;;5.53;;
28009;SDS011;15334;49.494;8.410;2022-12-08T02:55:10;13.57;;;5.78;;
28009;SDS011;15334;49.494;8.410;2022-12-08T02:57:50;15.98;;;5.10;;
28009;SDS011;15334;49.494;8.410;2022-12-08T03:00:28;8.65;;;4.35;;
28009;SDS011;15334;49.494;8.410;2022-12-08T03:03:05;10.38;;;5.07;;
28009;SDS011;15334;49.494;8.410;2022-12-08T03:05:43;12.30;;;4.28;;
28009;SDS011;15334;49.494;8.410;2022-12-08T03:08:21;13.55;;;4.90;;
28009;SDS011;15334;49.494;8.410;2022-12-08T03:10:55;11.48;;;5.13;;
28009;SDS011;15334;49.494;8.410;2022-12-08T03:13:31;12.40;;;5.00;;
28009;SDS011;15334;49.494;8.410;2022-12-08T03:16:05;9.40;;;4.75;;
28009;SDS011;15334;49.494;8.410;2022-12-08T03:18:36;11.70;;;5.50;;
28009;SDS011;15334;49.494;8.410;2022-12-08T03:21:10;10.10;;;5.00;;
28009;SDS011;15334;49.494;8.410;2022-12-08T03:23:41;11.27;;;5.20;;
28009;SDS011;15334;49.494;8.410;2022-12-08T03:26:12;10.05;;;4.93;;
28009;SDS011;15334;49.494;8.410;2022-12-08T03:28:46;9.68;;;5.18;;
28009;SDS011;15334;49.494;8.410;2022-12-08T03:31:15;8.75;;;4.68;;
28009;SDS011;15334;49.494;8.410;2022-12-08T03:33:46;13.38;;;5.00;;
28009;SDS011;15334;49.494;8.410;2022-12-08T03:36:19;12.93;;;5.30;;
28009;SDS011;15334;49.494;8.410;2022-12-08T03:38:49;14.43;;;6.18;;
28009;SDS011;15334;49.494;8.410;2022-12-08T03:41:19;13.02;;;5.57;;
28009;SDS011;15334;49.494;8.410;2022-12-08T03:43:48;13.77;;;6.25;;
28009;SDS011;15334;49.494;8.410;2022-12-08T03:46:17;13.60;;;5.55;;
28009;SDS011;15334;49.494;8.410;2022-12-08T03:48:45;14.70;;;6.10;;
28009;SDS011;15334;49.494;8.410;2022-12-08T03:51:13;15.02;;;5.55;;
28009;SDS011;15334;49.494;8.410;2022-12-08T03:53:42;16.05;;;6.68;;
28009;SDS011;15334;49.494;8.410;2022-12-08T03:56:13;13.18;;;5.30;;
28009;SDS011;15334;49.494;8.410;2022-12-08T03:58:42;16.95;;;5.32;;
28009;SDS011;15334;49.494;8.410;2022-12-08T04:01:11;20.33;;;7.32;;
28009;SDS011;15334;49.494;8.410;2022-12-08T04:03:38;13.68;;;6.68;;
28009;SDS011;15334;49.494;8.410;2022-12-08T04:06:06;16.17;;;7.53;;
28009;SDS011;15334;49.494;8.410;2022-12-08T04:08:37;14.43;;;6.00;;
28009;SDS011;15334;49.494;8.410;2022-12-08T04:11:09;15.23;;;7.00;;
28009;SDS011;15334;49.494;8.410;2022-12-08T04:13:38;11.80;;;5.72;;
28009;SDS011;15334;49.494;8.410;2022-12-08T04:16:12;13.27;;;6.63;;
28009;SDS011;15334;49.494;8.410;2022-12-08T04:18:42;14.95;;;6.50;;
28009;SDS011;15334;49.494;8.410;2022-12-08T04:21:11;19.15;;;6.55;;
28009;SDS011;15334;49.494;8.410;2022-12-08T04:23:39;15.48;;;6.28;;
28009;SDS011;15334;49.494;8.410;2022-12-08T04:26:08;15.40;;;7.50;;
28009;SDS011;15334;49.494;8.410;2022-12-08T04:28:37;17.23;;;6.93;;
28009;SDS011;15334;49.494;8.410;2022-12-08T04:31:05;13.55;;;6.03;;
28009;SDS011;15334;49.494;8.410;2022-12-08T04:33:36;18.02;;;6.53;;
28009;SDS011;15334;49.494;8.410;2022-12-08T04:36:04;16.35;;;7.13;;
28009;SDS011;15334;49.494;8.410;2022-12-08T04:38:33;19.50;;;6.50;;
28009;SDS011;15334;49.494;8.410;2022-12-08T04:41:01;15.57;;;6.82;;
28009;SDS011;15334;49.494;8.410;2022-12-08T04:43:31;15.73;;;7.07;;
28009;SDS011;15334;49.494;8.410;2022-12-08T04:46:04;11.02;;;5.05;;
28009;SDS011;15334;49.494;8.410;2022-12-08T04:48:33;13.47;;;6.77;;
28009;SDS011;15334;49.494;8.410;2022-12-08T04:51:03;12.82;;;6.32;;
28009;SDS011;15334;49.494;8.410;2022-12-08T04:53:31;11.55;;;5.50;;
28009;SDS011;15334;49.494;8.410;2022-12-08T04:56:00;12.50;;;5.93;;
28009;SDS011;15334;49.494;8.410;2022-12-08T04:58:28;17.10;;;7.35;;
28009;SDS011;15334;49.494;8.410;2022-12-08T05:00:57;19.10;;;8.18;;
28009;SDS011;15334;49.494;8.410;2022-12-08T05:03:25;15.50;;;7.22;;
28009;SDS011;15334;49.494;8.410;2022-12-08T05:05:57;15.23;;;6.40;;
28009;SDS011;15334;49.494;8.410;2022-12-08T05:08:26;15.20;;;7.07;;
28009;SDS011;15334;49.494;8.410;2022-12-08T05:11:00;19.50;;;7.90;;
28009;SDS011;15334;49.494;8.410;2022-12-08T05:13:28;20.00;;;7.85;;
28009;SDS011;15334;49.494;8.410;2022-12-08T05:16:02;16.05;;;6.95;;
28009;SDS011;15334;49.494;8.410;2022-12-08T05:18:31;14.43;;;6.90;;
28009;SDS011;15334;49.494;8.410;2022-12-08T05:20:59;17.77;;;7.47;;
28009;SDS011;15334;49.494;8.410;2022-12-08T05:23:27;16.42;;;7.70;;
28009;SDS011;15334;49.494;8.410;2022-12-08T05:25:55;18.73;;;6.78;;
28009;SDS011;15334;49.494;8.410;2022-12-08T05:28:23;14.13;;;6.53;;
28009;SDS011;15334;49.494;8.410;2022-12-08T05:31:10;14.80;;;6.80;;
28009;SDS011;15334;49.494;8.410;2022-12-08T05:33:39;14.25;;;6.53;;
28009;SDS011;15334;49.494;8.410;2022-12-08T05:36:08;16.55;;;7.00;;
28009;SDS011;15334;49.494;8.410;2022-12-08T05:38:37;14.18;;;5.82;;
28009;SDS011;15334;49.494;8.410;2022-12-08T05:41:06;19.17;;;6.22;;
28009;SDS011;15334;49.494;8.410;2022-12-08T05:43:34;13.82;;;6.03;;
28009;SDS011;15334;49.494;8.410;2022-12-08T05:46:02;13.18;;;5.78;;
28009;SDS011;15334;49.494;8.410;2022-12-08T05:48:37;13.20;;;5.47;;
28009;SDS011;15334;49.494;8.410;2022-12-08T05:51:06;12.52;;;5.25;;
28009;SDS011;15334;49.494;8.410;2022-12-08T05:53:39;12.00;;;5.72;;
28009;SDS011;15334;49.494;8.410;2022-12-08T05:56:07;11.80;;;5.22;;
28009;SDS011;15334;49.494;8.410;2022-12-08T05:58:37;11.52;;;5.45;;
28009;SDS011;15334;49.494;8.410;2022-12-08T06:01:05;16.17;;;6.40;;
28009;SDS011;15334;49.494;8.410;2022-12-08T06:03:33;13.25;;;4.75;;
28009;SDS011;15334;49.494;8.410;2022-12-08T06:06:02;16.63;;;5.75;;
28009;SDS011;15334;49.494;8.410;2022-12-08T06:08:30;13.70;;;6.30;;
28009;SDS011;15334;49.494;8.410;2022-12-08T06:10:58;10.48;;;5.18;;
28009;SDS011;15334;49.494;8.410;2022-12-08T06:13:26;14.50;;;5.07;;
28009;SDS011;15334;49.494;8.410;2022-12-08T06:15:54;15.63;;;5.47;;
28009;SDS011;15334;49.494;8.410;2022-12-08T06:18:24;14.93;;;5.72;;
28009;SDS011;15334;49.494;8.410;2022-12-08T06:21:02;15.88;;;5.25;;
28009;SDS011;15334;49.494;8.410;2022-12-08T06:23:30;11.13;;;5.72;;
28009;SDS011;15334;49.494;8.410;2022-12-08T06:25:59;12.52;;;6.18;;
28009;SDS011;15334;49.494;8.410;2022-12-08T06:28:28;17.77;;;5.95;;
28009;SDS011;15334;49.494;8.410;2022-12-08T06:30:59;12.43;;;5.77;;
28009;SDS011;15334;49.494;8.410;2022-12-08T06:33:33;13.00;;;5.25;;
28009;SDS011;15334;49.494;8.410;2022-12-08T06:36:03;13.98;;;6.05;;
28009;SDS011;15334;49.494;8.410;2022-12-08T06:38:31;13.45;;;5.97;;
28009;SDS011;15334;49.494;8.410;2022-12-08T06:41:05;11.40;;;5.53;;
28009;SDS011;15334;49.494;8.410;2022-12-08T06:43:34;14.38;;;6.15;;
28009;SDS011;15334;49.494;8.410;2022-12-08T06:46:03;12.57;;;5.80;;
28009;SDS011;15334;49.494;8.410;2022-12-08T06:48:32;15.02;;;6.03;;
28009;SDS011;15334;49.494;8.410;2022-12-08T06:51:06;16.58;;;6.18;;
28009;SDS011;15334;49.494;8.410;2022-12-08T06:53:35;17.27;;;6.78;;
28009;SDS011;15334;49.494;8.410;2022-12-08T06:56:04;15.63;;;6.07;;
28009;SDS011;15334;49.494;8.410;2022-12-08T06:58:32;13.77;;;5.38;;
28009;SDS011;15334;49.494;8.410;2022-12-08T07:01:04;14.45;;;6.70;;
28009;SDS011;15334;49.494;8.410;2022-12-08T07:03:33;13.57;;;5.78;;
28009;SDS011;15334;49.494;8.410;2022-12-08T07:06:01;13.73;;;5.88;;
28009;SDS011;15334;49.494;8.410;2022-12-08T07:08:31;12.90;;;6.18;;
28009;SDS011;15334;49.494;8.410;2022-12-08T07:11:04;18.65;;;6.75;;
28009;SDS011;15334;49.494;8.410;2022-12-08T07:13:36;12.75;;;6.32;;
28009;SDS011;15334;49.494;8.410;2022-12-08T07:16:05;12.23;;;5.63;;
28009;SDS011;15334;49.494;8.410;2022-12-08T07:18:34;14.20;;;5.60;;
28009;SDS011;15334;49.494;8.410;2022-12-08T07:21:03;14.43;;;5.72;;
28009;SDS011;15334;49.494;8.410;2022-12-08T07:23:36;13.43;;;6.13;;
28009;SDS011;15334;49.494;8.410;2022-12-08T07:26:06;12.88;;;5.90;;
28009;SDS011;15334;49.494;8.410;2022-12-08T07:28:36;11.43;;;5.40;;
28009;SDS011;15334;49.494;8.410;2022-12-08T07:31:06;14.00;;;5.30;;
28009;SDS011;15334;49.494;8.410;2022-12-08T07:33:35;11.63;;;5.90;;
28009;SDS011;15334;49.494;8.410;2022-12-08T07:36:04;14.23;;;7.20;;
28009;SDS011;15334;49.494;8.410;2022-12-08T07:38:32;14.65;;;5.63;;
28009;SDS011;15334;49.494;8.410;2022-12-08T07:41:01;12.23;;;5.20;;
28009;SDS011;15334;49.494;8.410;2022-12-08T07:43:29;13.00;;;5.05;;
28009;SDS011;15334;49.494;8.410;2022-12-08T07:45:57;11.60;;;5.22;;
28009;SDS011;15334;49.494;8.410;2022-12-08T07:48:26;14.00;;;5.65;;
28009;SDS011;15334;49.494;8.410;2022-12-08T07:50:58;10.55;;;5.22;;
28009;SDS011;15334;49.494;8.410;2022-12-08T07:53:30;11.82;;;5.20;;
28009;SDS011;15334;49.494;8.410;2022-12-08T07:55:59;13.70;;;5.72;;
28009;SDS011;15334;49.494;8.410;2022-12-08T07:58:28;14.20;;;5.85;;
28009;SDS011;15334;49.494;8.410;2022-12-08T08:01:00;14.95;;;5.68;;
28009;SDS011;15334;49.494;8.410;2022-12-08T08:03:28;10.68;;;4.95;;
28009;SDS011;15334;49.494;8.410;2022-12-08T08:06:03;12.27;;;5.85;;
28009;SDS011;15334;49.494;8.410;2022-12-08T08:08:33;11.90;;;4.70;;
28009;SDS011;15334;49.494;8.410;2022-12-08T08:11:04;16.13;;;5.65;;
28009;SDS011;15334;49.494;8.410;2022-12-08T08:13:45;11.60;;;4.70;;
28009;SDS011;15334;49.494;8.410;2022-12-08T08:16:16;12.27;;;5.57;;
28009;SDS011;15334;49.494;8.410;2022-12-08T08:18:46;15.90;;;5.82;;
28009;SDS011;15334;49.494;8.410;2022-12-08T08:21:15;12.10;;;5.32;;
28009;SDS011;15334;49.494;8.410;2022-12-08T08:24:03;11.73;;;4.72;;
28009;SDS011;15334;49.494;8.410;2022-12-08T08:26:35;12.05;;;5.43;;
28009;SDS011;15334;49.494;8.410;2022-12-08T08:29:04;10.48;;;4.80;;
28009;SDS011;15334;49.494;8.410;2022-12-08T08:31:32;10.43;;;4.72;;
28009;SDS011;15334;49.494;8.410;2022-12-08T08:34:00;12.38;;;4.78;;
28009;SDS011;15334;49.494;8.410;2022-12-08T08:36:31;10.68;;;3.92;;
28009;SDS011;15334;49.494;8.410;2022-12-08T08:38:59;14.48;;;5.72;;
28009;SDS011;15334;49.494;8.410;2022-12-08T08:41:27;12.13;;;5.05;;
28009;SDS011;15334;49.494;8.410;2022-12-08T08:43:55;13.57;;;5.10;;
28009;SDS011;15334;49.494;8.410;2022-12-08T08:46:25;12.18;;;4.90;;
28009;SDS011;15334;49.494;8.410;2022-12-08T08:48:53;8.88;;;4.57;;
28009;SDS011;15334;49.494;8.410;2022-12-08T08:51:21;12.73;;;5.20;;
28009;SDS011;15334;49.494;8.410;2022-12-08T08:53:49;10.38;;;5.00;;
28009;SDS011;15334;49.494;8.410;2022-12-08T08:56:17;12.02;;;5.22;;
28009;SDS011;15334;49.494;8.410;2022-12-08T08:58:46;12.52;;;5.30;;
28009;SDS011;15334;49.494;8.410;2022-12-08T09:01:15;12.38;;;5.20;;
28009;SDS011;15334;49.494;8.410;2022-12-08T09:03:46;14.00;;;5.30;;
28009;SDS011;15334;49.494;8.410;2022-12-08T09:06:15;18.58;;;6.72;;
28009;SDS011;15334;49.494;8.410;2022-12-08T09:08:45;12.10;;;5.20;;
28009;SDS011;15334;49.494;8.410;2022-12-08T09:11:14;18.00;;;6.20;;
28009;SDS011;15334;49.494;8.410;2022-12-08T09:13:43;14.70;;;5.90;;
28009;SDS011;15334;49.494;8.410;2022-12-08T09:16:15;14.55;;;6.47;;
28009;SDS011;15334;49.494;8.410;2022-12-08T09:18:44;15.27;;;6.07;;
28009;SDS011;15334;49.494;8.410;2022-12-08T09:21:15;17.30;;;6.05;;
28009;SDS011;15334;49.494;8.410;2022-12-08T09:23:48;13.52;;;5.57;;
28009;SDS011;15334;49.494;8.410;2022-12-08T09:26:16;15.85;;;5.75;;
28009;SDS011;15334;49.494;8.410;2022-12-08T09:28:47;13.93;;;5.88;;
28009;SDS011;15334;49.494;8.410;2022-12-08T09:31:16;11.00;;;5.53;;
28009;SDS011;15334;49.494;8.410;2022-12-08T09:33:45;13.07;;;5.57;;
28009;SDS011;15334;49.494;8.410;2022-12-08T09:36:15;14.43;;;5.68;;
28009;SDS011;15334;49.494;8.410;2022-12-08T09:38:43;13.88;;;5.88;;
28009;SDS011;15334;49.494;8.410;2022-12-08T09:41:20;16.85;;;7.38;;
28009;SDS011;15334;49.494;8.410;2022-12-08T09:44:06;14.43;;;5.75;;
28009;SDS011;15334;49.494;8.410;2022-12-08T09:46:50;16.48;;;6.43;;
28009;SDS011;15334;49.494;8.410;2022-12-08T09:49:23;13.82;;;5.88;;
28009;SDS011;15334;49.494;8.410;2022-12-08T09:52:01;17.67;;;7.28;;
28009;SDS011;15334;49.494;8.410;2022-12-08T09:54:31;17.52;;;6.93;;
28009;SDS011;15334;49.494;8.410;2022-12-08T09:57:02;16.63;;;7.05;;
28009;SDS011;15334;49.494;8.410;2022-12-08T09:59:37;13.95;;;6.53;;
28009;SDS011;15334;49.494;8.410;2022-12-08T10:02:09;15.07;;;5.80;;
28009;SDS011;15334;49.494;8.410;2022-12-08T10:04:51;14.35;;;5.97;;
28009;SDS011;15334;49.494;8.410;2022-12-08T10:07:25;13.35;;;6.20;;
28009;SDS011;15334;49.494;8.410;2022-12-08T10:09:59;15.68;;;6.60;;
28009;SDS011;15334;49.494;8.410;2022-12-08T10:12:34;18.20;;;7.55;;
28009;SDS011;15334;49.494;8.410;2022-12-08T10:15:08;14.32;;;6.50;;
28009;SDS011;15334;49.494;8.410;2022-12-08T10:18:01;11.27;;;5.20;;
28009;SDS011;15334;49.494;8.410;2022-12-08T10:20:35;15.02;;;6.15;;
28009;SDS011;15334;49.494;8.410;2022-12-08T10:23:08;17.58;;;7.00;;
28009;SDS011;15334;49.494;8.410;2022-12-08T10:25:46;13.77;;;7.07;;
28009;SDS011;15334;49.494;8.410;2022-12-08T10:28:15;14.88;;;6.65;;
28009;SDS011;15334;49.494;8.410;2022-12-08T10:30:43;17.95;;;6.93;;
28009;SDS011;15334;49.494;8.410;2022-12-08T10:33:13;12.60;;;5.85;;
28009;SDS011;15334;49.494;8.410;2022-12-08T10:35:44;11.20;;;5.78;;
28009;SDS011;15334;49.494;8.410;2022-12-08T10:40:47;12.27;;;6.15;;
28009;SDS011;15334;49.494;8.410;2022-12-08T10:43:20;15.98;;;6.50;;
28009;SDS011;15334;49.494;8.410;2022-12-08T10:45:50;13.57;;;6.10;;
28009;SDS011;15334;49.494;8.410;2022-12-08T10:48:22;12.75;;;4.65;;
28009;SDS011;15334;49.494;8.410;2022-12-08T10:50:53;12.70;;;5.63;;
28009;SDS011;15334;49.494;8.410;2022-12-08T10:53:25;16.45;;;6.20;;
28009;SDS011;15334;49.494;8.410;2022-12-08T10:56:04;11.00;;;5.47;;
28009;SDS011;15334;49.494;8.410;2022-12-08T10:58:34;11.50;;;5.75;;
28009;SDS011;15334;49.494;8.410;2022-12-08T11:01:08;10.00;;;4.30;;
28009;SDS011;15334;49.494;8.410;2022-12-08T11:03:42;10.50;;;4.88;;
28009;SDS011;15334;49.494;8.410;2022-12-08T11:06:15;11.07;;;5.22;;
28009;SDS011;15334;49.494;8.410;2022-12-08T11:08:48;10.73;;;4.97;;
28009;SDS011;15334;49.494;8.410;2022-12-08T11:13:54;11.05;;;4.93;;
28009;SDS011;15334;49.494;8.410;2022-12-08T11:16:22;12.88;;;5.13;;
28009;SDS011;15334;49.494;8.410;2022-12-08T11:18:54;10.90;;;5.03;;
28009;SDS011;15334;49.494;8.410;2022-12-08T11:21:32;10.85;;;4.85;;
28009;SDS011;15334;49.494;8.410;2022-12-08T11:24:15;9.30;;;4.35;;
28009;SDS011;15334;49.494;8.410;2022-12-08T11:26:50;14.07;;;5.80;;
28009;SDS011;15334;49.494;8.410;2022-12-08T11:29:21;13.82;;;5.60;;
28009;SDS011;15334;49.494;8.410;2022-12-08T11:31:51;12.07;;;5.40;;
28009;SDS011;15334;49.494;8.410;2022-12-08T11:34:26;9.95;;;5.18;;
28009;SDS011;15334;49.494;8.410;2022-12-08T11:37:00;11.52;;;5.22;;
28009;SDS011;15334;49.494;8.410;2022-12-08T11:39:35;10.13;;;5.82;;
28009;SDS011;15334;49.494;8.410;2022-12-08T11:42:11;9.65;;;4.82;;
28009;SDS011;15334;49.494;8.410;2022-12-08T11:44:44;10.95;;;4.97;;
28009;SDS011;15334;49.494;8.410;2022-12-08T11:47:19;11.57;;;4.70;;
28009;SDS011;15334;49.494;8.410;2022-12-08T11:49:51;8.77;;;4.35;;
28009;SDS011;15334;49.494;8.410;2022-12-08T11:52:23;13.90;;;4.93;;
28009;SDS011;15334;49.494;8.410;2022-12-08T11:54:59;11.02;;;5.35;;
28009;SDS011;15334;49.494;8.410;2022-12-08T11:57:32;13.13;;;5.20;;
28009;SDS011;15334;49.494;8.410;2022-12-08T12:00:00;15.05;;;5.40;;
28009;SDS011;15334;49.494;8.410;2022-12-08T12:02:30;12.35;;;5.10;;
28009;SDS011;15334;49.494;8.410;2022-12-08T12:05:02;11.52;;;5.60;;
28009;SDS011;15334;49.494;8.410;2022-12-08T12:07:48;15.02;;;6.80;;
28009;SDS011;15334;49.494;8.410;2022-12-08T12:10:29;13.80;;;6.15;;
28009;SDS011;15334;49.494;8.410;2022-12-08T12:13:09;11.43;;;4.72;;
28009;SDS011;15334;49.494;8.410;2022-12-08T12:16:05;12.73;;;5.40;;
28009;SDS011;15334;49.494;8.410;2022-12-08T12:18:54;12.73;;;5.22;;
28009;SDS011;15334;49.494;8.410;2022-12-08T12:21:25;10.52;;;4.68;;
28009;SDS011;15334;49.494;8.410;2022-12-08T12:23:59;13.65;;;5.25;;
28009;SDS011;15334;49.494;8.410;2022-12-08T12:26:33;15.02;;;5.32;;
28009;SDS011;15334;49.494;8.410;2022-12-08T12:29:04;9.20;;;4.22;;
28009;SDS011;15334;49.494;8.410;2022-12-08T12:31:35;15.40;;;5.30;;
28009;SDS011;15334;49.494;8.410;2022-12-08T12:34:10;14.27;;;5.43;;
28009;SDS011;15334;49.494;8.410;2022-12-08T12:36:43;11.30;;;5.72;;
28009;SDS011;15334;49.494;8.410;2022-12-08T12:39:17;9.88;;;4.70;;
28009;SDS011;15334;49.494;8.410;2022-12-08T12:41:49;9.88;;;4.57;;
28009;SDS011;15334;49.494;8.410;2022-12-08T12:47:13;12.18;;;5.00;;
28009;SDS011;15334;49.494;8.410;2022-12-08T12:50:07;12.10;;;5.47;;
28009;SDS011;15334;49.494;8.410;2022-12-08T12:52:45;12.60;;;4.93;;
28009;SDS011;15334;49.494;8.410;2022-12-08T12:55:24;10.68;;;4.70;;
28009;SDS011;15334;49.494;8.410;2022-12-08T13:04:15;12.10;;;5.35;;
28009;SDS011;15334;49.494;8.410;2022-12-08T13:06:46;12.43;;;4.85;;
28009;SDS011;15334;49.494;8.410;2022-12-08T13:09:20;8.75;;;4.60;;
28009;SDS011;15334;49.494;8.410;2022-12-08T13:11:53;12.38;;;4.57;;
28009;SDS011;15334;49.494;8.410;2022-12-08T13:14:28;8.23;;;4.45;;
28009;SDS011;15334;49.494;8.410;2022-12-08T13:17:03;12.27;;;5.05;;
28009;SDS011;15334;49.494;8.410;2022-12-08T13:19:37;11.13;;;4.85;;
28009;SDS011;15334;49.494;8.410;2022-12-08T13:28:19;12.35;;;5.35;;
28009;SDS011;15334;49.494;8.410;2022-12-08T13:30:49;10.20;;;5.38;;
28009;SDS011;15334;49.494;8.410;2022-12-08T13:33:21;9.90;;;4.53;;
28009;SDS011;15334;49.494;8.410;2022-12-08T13:38:52;11.88;;;4.97;;
28009;SDS011;15334;49.494;8.410;2022-12-08T13:41:23;7.30;;;3.90;;
28009;SDS011;15334;49.494;8.410;2022-12-08T13:44:01;9.35;;;4.80;;
28009;SDS011;15334;49.494;8.410;2022-12-08T13:46:54;11.50;;;5.65;;
28009;SDS011;15334;49.494;8.410;2022-12-08T13:49:48;9.80;;;5.15;;
28009;SDS011;15334;49.494;8.410;2022-12-08T13:52:47;10.80;;;5.18;;
28009;SDS011;15334;49.494;8.410;2022-12-08T13:55:41;10.25;;;5.47;;
28009;SDS011;15334;49.494;8.410;2022-12-08T13:58:32;10.93;;;5.15;;
28009;SDS011;15334;49.494;8.410;2022-12-08T14:01:03;11.05;;;4.28;;
28009;SDS011;15334;49.494;8.410;2022-12-08T14:03:37;13.15;;;5.85;;
28009;SDS011;15334;49.494;8.410;2022-12-08T14:06:34;11.30;;;4.90;;
28009;SDS011;15334;49.494;8.410;2022-12-08T14:09:04;12.55;;;5.82;;
28009;SDS011;15334;49.494;8.410;2022-12-08T14:11:40;11.27;;;5.63;;
28009;SDS011;15334;49.494;8.410;2022-12-08T14:14:13;11.85;;;5.18;;
28009;SDS011;15334;49.494;8.410;2022-12-08T14:17:05;11.05;;;5.72;;
28009;SDS011;15334;49.494;8.410;2022-12-08T14:19:41;12.73;;;5.80;;
28009;SDS011;15334;49.494;8.410;2022-12-08T14:22:16;11.57;;;5.53;;
28009;SDS011;15334;49.494;8.410;2022-12-08T14:24:45;12.57;;;5.22;;
28009;SDS011;15334;49.494;8.410;2022-12-08T14:27:16;15.27;;;6.20;;
28009;SDS011;15334;49.494;8.410;2022-12-08T14:29:46;10.07;;;5.63;;
28009;SDS011;15334;49.494;8.410;2022-12-08T14:32:19;11.77;;;6.25;;
28009;SDS011;15334;49.494;8.410;2022-12-08T14:34:53;9.95;;;5.38;;
28009;SDS011;15334;49.494;8.410;2022-12-08T14:37:25;12.10;;;5.70;;
28009;SDS011;15334;49.494;8.410;2022-12-08T14:40:00;15.32;;;6.03;;
28009;SDS011;15334;49.494;8.410;2022-12-08T14:42:42;14.52;;;6.00;;
28009;SDS011;15334;49.494;8.410;2022-12-08T14:45:12;14.32;;;6.35;;
28009;SDS011;15334;49.494;8.410;2022-12-08T14:47:42;13.43;;;6.82;;
28009;SDS011;15334;49.494;8.410;2022-12-08T14:53:11;12.02;;;5.93;;
28009;SDS011;15334;49.494;8.410;2022-12-08T14:55:44;15.00;;;5.60;;
28009;SDS011;15334;49.494;8.410;2022-12-08T14:58:17;13.60;;;5.80;;
28009;SDS011;15334;49.494;8.410;2022-12-08T15:00:52;14.15;;;6.90;;
28009;SDS011;15334;49.494;8.410;2022-12-08T15:03:23;13.15;;;5.80;;
28009;SDS011;15334;49.494;8.410;2022-12-08T15:05:55;11.80;;;5.78;;
28009;SDS011;15334;49.494;8.410;2022-12-08T15:08:24;13.82;;;6.57;;
28009;SDS011;15334;49.494;8.410;2022-12-08T15:11:11;14.07;;;7.00;;
28009;SDS011;15334;49.494;8.410;2022-12-08T15:13:50;13.18;;;6.43;;
28009;SDS011;15334;49.494;8.410;2022-12-08T15:16:24;15.77;;;5.88;;
28009;SDS011;15334;49.494;8.410;2022-12-08T15:19:01;13.75;;;6.13;;
28009;SDS011;15334;49.494;8.410;2022-12-08T15:21:44;13.15;;;6.60;;
28009;SDS011;15334;49.494;8.410;2022-12-08T15:24:13;12.32;;;5.43;;
28009;SDS011;15334;49.494;8.410;2022-12-08T15:26:44;17.33;;;6.82;;
28009;SDS011;15334;49.494;8.410;2022-12-08T15:29:18;14.07;;;5.63;;
28009;SDS011;15334;49.494;8.410;2022-12-08T15:31:47;14.82;;;6.45;;
28009;SDS011;15334;49.494;8.410;2022-12-08T15:34:22;10.75;;;5.40;;
28009;SDS011;15334;49.494;8.410;2022-12-08T15:36:51;10.57;;;5.47;;
28009;SDS011;15334;49.494;8.410;2022-12-08T15:39:27;14.10;;;6.47;;
28009;SDS011;15334;49.494;8.410;2022-12-08T15:41:58;13.85;;;6.30;;